Time;durP1;ratioP1;P1;durP2;ratioP2;P2;SDS_P1;SDS_P2;PMS_P1;PMS_P2;Temp;Humidity;BMP_temperature;BMP_pressure;BME280_temperature;BME280_humidity;BME280_pressure;Samples;Min_cycle;Max_cycle;Signal;HPM_P1;HPM_P2
2021/04/21 00:01:55;;;;;;;12.27;6.97;;;;;;;28.37;17.48;97860.66;5043421;28;20032;-84
2021/04/21 00:04:22;;;;;;;11.05;6.68;;;;;;;28.33;17.90;97867.72;5037614;28;20496;-84
2021/04/21 00:06:49;;;;;;;12.27;7.15;;;;;;;27.98;18.00;97872.78;5038591;28;20398;-84
2021/04/21 00:09:17;;;;;;;12.52;6.32;;;;;;;27.62;18.62;97861.34;5039243;28;20107;-84
2021/04/21 00:11:44;;;;;;;12.43;5.90;;;;;;;27.53;18.46;97878.22;5036443;28;20041;-84
2021/04/21 00:14:16;;;;;;;10.48;5.80;;;;;;;27.80;18.42;97865.00;5039725;28;20037;-84
2021/04/21 00:16:48;;;;;;;11.45;6.28;;;;;;;28.19;17.95;97866.28;5037792;28;20033;-84
2021/04/21 00:19:18;;;;;;;13.05;8.60;;;;;;;27.74;18.31;97861.25;5037990;28;20151;-84
2021/04/21 00:21:46;;;;;;;8.38;4.90;;;;;;;27.22;19.17;97864.06;5047319;28;20033;-84
2021/04/21 00:24:14;;;;;;;7.78;4.63;;;;;;;26.99;19.22;97864.53;5040596;28;20120;-84
2021/04/21 00:26:42;;;;;;;8.60;4.30;;;;;;;27.26;18.82;97861.91;5038034;28;20034;-84
2021/04/21 00:29:10;;;;;;;8.40;5.25;;;;;;;27.67;18.55;97855.88;5037226;28;20029;-84
2021/04/21 00:31:37;;;;;;;10.48;5.28;;;;;;;28.06;18.18;97857.13;5037564;28;20029;-84
2021/04/21 00:34:05;;;;;;;10.25;5.28;;;;;;;28.37;17.88;97857.84;5035396;28;20025;-84
2021/04/21 00:36:35;;;;;;;9.70;4.72;;;;;;;28.38;17.83;97848.09;5046255;28;20036;-84
2021/04/21 00:39:03;;;;;;;10.43;4.67;;;;;;;28.16;18.09;97847.44;5039894;28;20040;-84
2021/04/21 00:41:56;;;;;;;10.27;5.63;;;;;;;28.23;18.26;97847.13;5038728;28;20367;-84
2021/04/21 00:44:40;;;;;;;10.48;6.40;;;;;;;27.97;18.07;97852.22;5036350;28;20037;-84
2021/04/21 00:47:11;;;;;;;11.63;4.78;;;;;;;28.17;17.95;97846.16;5040090;28;20391;-84
2021/04/21 00:49:57;;;;;;;13.07;5.45;;;;;;;28.36;17.86;97852.63;5037679;28;20044;-84
2021/04/21 00:52:49;;;;;;;9.25;4.90;;;;;;;27.78;18.46;97850.59;5037705;28;20026;-84
2021/04/21 00:55:54;;;;;;;7.78;5.38;;;;;;;27.84;18.44;97854.38;5035085;28;20029;-84
2021/04/21 00:58:48;;;;;;;6.68;4.65;;;;;;;27.65;18.49;97849.94;5041391;28;20084;-84
2021/04/21 01:01:16;;;;;;;8.45;4.20;;;;;;;27.94;18.20;97852.34;5038832;28;20038;-84
2021/04/21 01:03:44;;;;;;;8.18;4.88;;;;;;;27.89;18.01;97845.28;5044172;28;20029;-84
2021/04/21 01:06:19;;;;;;;8.90;4.97;;;;;;;27.97;17.95;97846.59;5043464;28;20039;-84
2021/04/21 01:08:56;;;;;;;6.53;4.70;;;;;;;28.06;17.91;97845.84;5043695;28;20033;-84
2021/04/21 01:11:36;;;;;;;10.02;5.13;;;;;;;28.15;18.03;97842.25;5039402;28;20057;-84
2021/04/21 01:14:14;;;;;;;9.73;5.85;;;;;;;28.31;17.68;97848.41;5039119;28;20099;-84
2021/04/21 01:16:42;;;;;;;9.23;5.25;;;;;;;28.47;17.60;97838.84;5039605;28;20033;-84
2021/04/21 01:19:47;;;;;;;8.73;5.07;;;;;;;28.53;17.69;97837.75;5045512;28;20048;-84
2021/04/21 01:22:33;;;;;;;9.93;5.40;;;;;;;28.47;17.77;97836.03;5032932;28;20050;-84
2021/04/21 01:25:23;;;;;;;8.77;5.20;;;;;;;28.58;17.50;97839.16;5045251;28;20037;-84
2021/04/21 01:27:59;;;;;;;8.73;5.30;;;;;;;28.74;17.34;97834.03;5040630;28;20033;-84
2021/04/21 01:30:27;;;;;;;6.97;4.35;;;;;;;28.59;17.65;97837.97;5039347;28;20033;-84
2021/04/21 01:33:01;;;;;;;9.40;4.88;;;;;;;28.05;18.05;97833.00;5040282;28;20115;-84
2021/04/21 01:35:28;;;;;;;7.28;3.90;;;;;;;27.65;18.42;97835.81;5039129;28;20095;-84
2021/04/21 01:38:03;;;;;;;12.10;5.13;;;;;;;27.55;18.56;97842.66;5041531;28;20041;-84
2021/04/21 01:40:44;;;;;;;8.85;4.40;;;;;;;27.39;19.04;97840.88;5041773;28;20384;-84
2021/04/21 01:43:19;;;;;;;9.95;5.00;;;;;;;27.69;18.53;97842.09;5038686;28;20040;-84
2021/04/21 01:45:48;;;;;;;8.75;3.92;;;;;;;27.77;18.68;97834.13;5041451;28;20044;-84
2021/04/21 01:48:22;;;;;;;7.30;4.20;;;;;;;27.80;18.63;97836.00;5038908;28;20045;-84
2021/04/21 01:50:50;;;;;;;10.23;5.00;;;;;;;28.00;18.20;97837.22;5038614;28;20505;-84
2021/04/21 01:53:30;;;;;;;9.43;5.18;;;;;;;27.76;18.38;97847.44;5038520;28;20037;-84
2021/04/21 01:56:20;;;;;;;7.00;4.43;;;;;;;27.61;18.54;97854.13;5037134;28;20061;-84
2021/04/21 01:59:05;;;;;;;9.80;4.63;;;;;;;27.73;18.33;97853.22;5039763;28;20439;-84
2021/04/21 02:01:47;;;;;;;8.80;5.18;;;;;;;28.03;17.91;97847.56;5044460;28;20064;-84
2021/04/21 02:04:51;;;;;;;8.38;4.47;;;;;;;28.32;17.64;97849.97;5038877;28;20041;-84
2021/04/21 02:07:45;;;;;;;6.75;4.30;;;;;;;28.27;17.93;97844.16;5015812;28;20053;-84
2021/04/21 02:10:45;;;;;;;10.52;5.05;;;;;;;28.11;17.97;97848.06;5038868;28;20037;-84
2021/04/21 02:13:24;;;;;;;8.70;4.80;;;;;;;27.94;18.17;97847.50;5039120;28;20519;-84
2021/04/21 02:16:20;;;;;;;10.68;5.78;;;;;;;27.65;18.50;97844.28;5040589;28;20029;-84
2021/04/21 02:18:57;;;;;;;7.82;5.25;;;;;;;27.62;18.25;97848.03;5045285;28;20037;-84
2021/04/21 02:21:55;;;;;;;10.27;5.30;;;;;;;27.35;18.61;97848.63;5036006;28;20034;-84
2021/04/21 02:24:55;;;;;;;10.70;5.43;;;;;;;27.21;18.81;97851.25;5025688;28;20049;-84
2021/04/21 02:27:35;;;;;;;8.93;5.63;;;;;;;27.45;18.74;97849.50;5038444;28;20394;-84
2021/04/21 02:30:10;;;;;;;6.53;4.68;;;;;;;27.93;18.27;97853.63;5040121;28;20040;-84
2021/04/21 02:32:44;;;;;;;7.97;4.85;;;;;;;28.17;17.94;97851.06;5039394;28;20383;-84
2021/04/21 02:35:50;;;;;;;9.82;5.88;;;;;;;27.97;17.83;97846.59;5040030;28;20045;-84
2021/04/21 02:38:29;;;;;;;8.93;5.20;;;;;;;28.04;18.12;97842.72;5013097;28;20129;-84
2021/04/21 02:41:17;;;;;;;7.60;4.60;;;;;;;28.15;17.86;97843.03;5038468;28;20057;-84
2021/04/21 02:43:59;;;;;;;8.77;4.93;;;;;;;28.40;17.67;97839.94;5042307;28;20378;-84
2021/04/21 02:46:29;;;;;;;8.55;5.45;;;;;;;28.31;17.83;97830.69;5040804;28;20070;-84
2021/04/21 02:49:07;;;;;;;11.55;5.55;;;;;;;27.98;18.02;97828.38;5035975;28;20086;-84
2021/04/21 02:51:46;;;;;;;11.23;5.65;;;;;;;28.03;17.99;97833.44;5042669;28;20040;-84
2021/04/21 02:54:42;;;;;;;8.02;5.32;;;;;;;28.14;17.93;97835.03;5036482;28;20091;-83
2021/04/21 02:57:22;;;;;;;8.73;5.35;;;;;;;28.08;17.88;97841.31;5040008;28;20048;-84
2021/04/21 02:59:51;;;;;;;9.48;5.97;;;;;;;27.96;17.84;97838.56;5039481;28;20041;-84
2021/04/21 03:02:20;;;;;;;11.57;5.68;;;;;;;27.73;18.33;97839.91;5038436;28;20040;-84
2021/04/21 03:04:54;;;;;;;10.65;6.00;;;;;;;27.80;18.30;97844.47;5038507;28;20037;-84
2021/04/21 03:07:53;;;;;;;10.75;6.00;;;;;;;27.84;18.15;97845.13;5055371;28;20505;-84
2021/04/21 03:10:22;;;;;;;8.95;4.93;;;;;;;28.16;17.85;97841.00;5041858;28;20033;-84
2021/04/21 03:13:03;;;;;;;11.65;5.90;;;;;;;28.34;17.68;97838.19;5058239;28;20033;-84
2021/04/21 03:15:32;;;;;;;8.52;5.97;;;;;;;28.27;17.61;97830.81;5039524;28;20037;-84
2021/04/21 03:17:59;;;;;;;10.63;6.18;;;;;;;27.99;17.93;97835.63;5034629;28;20079;-84
2021/04/21 03:20:29;;;;;;;11.18;5.45;;;;;;;27.83;18.17;97835.88;5047391;28;20127;-83
2021/04/21 03:22:59;;;;;;;9.70;6.00;;;;;;;27.74;18.19;97832.25;5041365;28;20093;-84
2021/04/21 03:25:46;;;;;;;9.60;5.35;;;;;;;27.57;18.28;97836.56;5037767;28;20475;-84
2021/04/21 03:28:14;;;;;;;10.30;5.30;;;;;;;27.65;18.27;97844.28;5041779;28;20037;-83
2021/04/21 03:30:44;;;;;;;8.20;4.88;;;;;;;27.50;18.40;97839.66;5042352;28;20029;-84
2021/04/21 03:33:22;;;;;;;10.27;5.93;;;;;;;27.81;18.18;97840.41;5045379;28;20115;-83
2021/04/21 03:35:52;;;;;;;7.45;4.90;;;;;;;28.15;17.92;97833.78;5048397;28;20044;-83
2021/04/21 03:38:21;;;;;;;9.63;5.27;;;;;;;28.17;17.72;97839.75;5044690;28;20029;-83
2021/04/21 03:40:47;;;;;;;7.97;4.93;;;;;;;27.52;18.59;97835.13;5038105;28;20029;-84
2021/04/21 03:43:15;;;;;;;9.80;5.07;;;;;;;26.90;19.43;97834.28;5043392;28;20048;-83
2021/04/21 03:45:46;;;;;;;8.57;5.47;;;;;;;27.10;19.12;97840.34;5048379;28;20070;-84
2021/04/21 03:48:15;;;;;;;8.05;4.80;;;;;;;27.42;18.98;97835.56;5045264;28;20041;-84
2021/04/21 03:50:42;;;;;;;9.40;5.20;;;;;;;27.61;18.52;97846.44;5041790;28;20045;-84
2021/04/21 03:53:12;;;;;;;7.85;4.43;;;;;;;27.60;18.34;97847.72;5044283;28;20112;-84
2021/04/21 03:55:39;;;;;;;8.00;4.70;;;;;;;27.96;17.99;97844.22;5045402;28;20122;-85
2021/04/21 03:58:11;;;;;;;11.48;5.28;;;;;;;28.23;17.55;97841.50;5047228;28;20052;-85
2021/04/21 04:00:40;;;;;;;8.48;4.95;;;;;;;28.29;17.69;97847.28;5043021;28;20044;-85
2021/04/21 04:03:22;;;;;;;8.10;4.50;;;;;;;28.29;17.83;97844.47;5047277;28;20071;-85
2021/04/21 04:05:52;;;;;;;10.45;5.10;;;;;;;28.47;17.36;97844.50;5039824;28;20061;-85
2021/04/21 04:08:21;;;;;;;8.90;5.20;;;;;;;28.41;17.71;97847.16;5044162;28;20041;-85
2021/04/21 04:10:52;;;;;;;7.38;5.15;;;;;;;27.82;18.17;97844.81;5044829;28;20083;-85
2021/04/21 04:13:19;;;;;;;7.85;4.47;;;;;;;27.65;18.64;97847.09;5048344;28;20037;-85
2021/04/21 04:15:48;;;;;;;9.55;5.05;;;;;;;27.84;18.56;97847.97;5041617;28;20041;-85
2021/04/21 04:18:15;;;;;;;8.95;4.97;;;;;;;28.16;18.07;97850.25;5040805;28;20022;-85
2021/04/21 04:20:43;;;;;;;7.07;4.55;;;;;;;28.38;17.94;97853.72;5049838;28;20037;-85
2021/04/21 04:23:11;;;;;;;7.78;5.57;;;;;;;28.54;17.69;97849.84;5045546;28;20061;-85
2021/04/21 04:25:46;;;;;;;8.85;5.03;;;;;;;28.68;17.75;97850.03;5038293;28;20033;-85
2021/04/21 04:28:19;;;;;;;12.02;6.10;;;;;;;28.92;17.50;97850.16;5046499;28;20041;-85
2021/04/21 04:30:46;;;;;;;10.27;6.00;;;;;;;29.04;17.48;97857.69;5043917;28;20538;-88
2021/04/21 04:33:16;;;;;;;8.35;5.50;;;;;;;28.88;17.58;97857.25;5036317;28;20116;-86
2021/04/21 04:35:42;;;;;;;7.23;3.97;;;;;;;28.48;18.04;97857.34;5038488;28;20024;-85
2021/04/21 04:38:11;;;;;;;8.20;5.15;;;;;;;28.35;18.19;97857.53;5049851;28;20120;-87
2021/04/21 04:40:37;;;;;;;9.20;6.32;;;;;;;28.34;18.33;97855.16;5041635;28;20044;-85
2021/04/21 04:43:04;;;;;;;8.65;5.78;;;;;;;28.37;18.23;97857.84;5039087;28;20475;-85
2021/04/21 04:45:31;;;;;;;9.15;5.75;;;;;;;28.53;18.04;97863.19;5042953;28;20132;-85
2021/04/21 04:48:15;;;;;;;7.93;5.53;;;;;;;28.72;18.37;97864.78;5041336;28;20035;-86
2021/04/21 04:50:44;;;;;;;9.73;5.60;;;;;;;29.09;17.87;97859.88;5042762;28;20061;-86
2021/04/21 04:53:13;;;;;;;7.05;5.38;;;;;;;29.11;18.06;97854.53;5044209;28;20025;-86
2021/04/21 04:55:40;;;;;;;10.23;6.15;;;;;;;29.11;18.00;97854.53;5043740;28;20033;-86
2021/04/21 04:58:07;;;;;;;8.88;5.05;;;;;;;28.80;18.64;97864.47;5055342;28;20033;-86
2021/04/21 05:00:35;;;;;;;11.50;5.65;;;;;;;28.32;19.07;97866.13;5042046;28;20123;-86
2021/04/21 05:03:27;;;;;;;10.32;6.03;;;;;;;28.40;18.95;97865.34;5046170;28;20037;-86
2021/04/21 05:05:55;;;;;;;8.98;5.43;;;;;;;28.82;18.53;97861.97;5049655;28;20061;-85
2021/04/21 05:08:28;;;;;;;9.00;5.63;;;;;;;28.91;18.18;97865.56;5042594;28;20071;-86
2021/04/21 05:11:05;;;;;;;9.27;6.15;;;;;;;28.74;18.07;97867.13;5042139;28;20037;-85
2021/04/21 05:13:46;;;;;;;10.50;5.93;;;;;;;29.01;18.44;97869.19;5044663;28;20363;-86
2021/04/21 05:16:12;;;;;;;;;;;;;;;29.04;18.00;97865.38;5049515;28;20563;-85
2021/04/21 05:19:06;;;;;;;9.50;5.25;;;;;;;29.21;18.29;97866.66;5040209;28;20008;-85
2021/04/21 05:21:50;;;;;;;7.30;4.80;;;;;;;29.03;18.95;97864.63;5045926;28;20033;-86
2021/04/21 05:24:28;;;;;;;10.48;5.13;;;;;;;28.95;18.72;97871.06;5046707;28;20515;-87
2021/04/21 05:27:32;;;;;;;8.15;5.25;;;;;;;28.62;19.51;97868.88;5048031;28;20037;-86
2021/04/21 05:30:35;;;;;;;8.23;5.10;;;;;;;28.23;19.81;97866.13;5044033;28;20037;-87
2021/04/21 05:33:01;;;;;;;8.75;5.40;;;;;;;28.41;19.97;97874.63;5039394;28;20461;-87
2021/04/21 05:35:55;;;;;;;8.23;4.95;;;;;;;28.77;19.24;97868.25;5048446;28;20037;-87
2021/04/21 05:38:39;;;;;;;8.80;5.38;;;;;;;29.20;18.55;97877.19;5051917;28;20513;-87
2021/04/21 05:41:41;;;;;;;10.43;6.80;;;;;;;29.34;18.19;97873.69;5050112;28;20022;-87
2021/04/21 05:44:53;;;;;;;10.52;5.95;;;;;;;29.51;18.72;97876.16;5035465;28;20493;-87
2021/04/21 05:47:44;;;;;;;21.73;10.70;;;;;;;29.51;18.84;97876.16;5051342;28;20048;-87
2021/04/21 05:50:31;;;;;;;30.33;16.40;;;;;;;29.52;18.40;97875.69;5054233;28;20056;-87
2021/04/21 05:53:36;;;;;;;13.68;8.50;;;;;;;29.38;19.38;97882.78;5052599;28;20529;-87
2021/04/21 05:56:11;;;;;;;9.18;5.88;;;;;;;29.18;19.30;97893.03;5049874;28;20494;-87
2021/04/21 05:58:58;;;;;;;10.65;6.35;;;;;;;29.05;19.57;97890.38;5053806;28;20105;-88
2021/04/21 06:01:34;;;;;;;9.57;5.85;;;;;;;29.03;19.76;97892.91;5053847;28;20467;-87
2021/04/21 06:04:00;;;;;;;7.68;5.20;;;;;;;29.00;19.97;97891.00;5052732;28;20059;-87
2021/04/21 06:06:27;;;;;;;8.48;5.00;;;;;;;28.98;20.29;97879.38;5051807;28;20033;-88
2021/04/21 06:08:54;;;;;;;8.90;5.75;;;;;;;29.10;20.30;97892.53;5054954;28;20094;-87
2021/04/21 06:11:27;;;;;;;8.93;6.07;;;;;;;29.35;20.34;97891.44;5052064;28;20036;-88
2021/04/21 06:14:01;;;;;;;7.20;5.80;;;;;;;29.28;19.69;97886.91;5054846;28;20033;-87
2021/04/21 06:16:28;;;;;;;6.28;4.88;;;;;;;29.25;20.09;97879.38;5049505;28;20037;-87
2021/04/21 06:18:56;;;;;;;9.63;5.30;;;;;;;29.58;20.11;97887.94;5044119;28;20047;-87
2021/04/21 06:21:24;;;;;;;10.48;4.95;;;;;;;29.75;20.11;97885.53;5052023;28;20036;-87
2021/04/21 06:23:56;;;;;;;8.15;5.20;;;;;;;29.89;19.92;97882.81;5051298;28;20032;-87
2021/04/21 06:26:27;;;;;;;7.65;5.28;;;;;;;30.11;19.81;97882.53;5051462;28;20051;-88
2021/04/21 06:29:00;;;;;;;;;;;;;;;30.09;19.24;97885.06;5053259;28;20064;-87
2021/04/21 06:31:36;;;;;;;9.68;6.13;;;;;;;30.60;19.14;97882.09;5051563;28;19971;-88
2021/04/21 06:34:03;;;;;;;8.55;6.05;;;;;;;30.88;19.17;97882.69;5051275;28;20041;-87
2021/04/21 06:36:38;;;;;;;8.90;6.30;;;;;;;31.12;19.07;97883.44;5049709;28;20033;-87
2021/04/21 06:39:04;;;;;;;8.63;6.20;;;;;;;31.36;18.30;97881.31;5053626;28;20449;-87
2021/04/21 06:41:30;;;;;;;7.07;4.72;;;;;;;31.49;18.21;97881.81;5043324;28;20030;-88
2021/04/21 06:43:57;;;;;;;5.78;4.80;;;;;;;31.58;18.36;97890.22;5041923;28;20090;-88
2021/04/21 06:46:24;;;;;;;7.57;4.47;;;;;;;31.44;17.71;97891.00;5048464;28;20108;-87
2021/04/21 06:48:59;;;;;;;7.47;5.25;;;;;;;31.28;18.71;97886.59;5045908;28;20028;-88
2021/04/21 06:51:28;;;;;;;5.35;4.25;;;;;;;31.46;18.26;97888.47;5047347;28;20055;-88
2021/04/21 06:53:55;;;;;;;7.25;4.47;;;;;;;31.56;18.19;97881.44;5046450;28;20513;-88
2021/04/21 06:56:32;;;;;;;6.55;3.95;;;;;;;31.40;18.23;97884.72;5052060;28;20021;-88
2021/04/21 06:59:00;;;;;;;8.48;5.60;;;;;;;31.06;18.07;97888.22;5051297;28;20437;-88
2021/04/21 07:01:28;;;;;;;6.93;4.13;;;;;;;30.52;19.02;97883.75;5052618;28;20070;-87
2021/04/21 07:04:13;;;;;;;5.45;3.78;;;;;;;30.19;18.70;97892.25;5051190;28;20041;-87
2021/04/21 07:06:40;;;;;;;4.85;3.78;;;;;;;30.58;19.12;97890.31;5052484;28;20033;-87
2021/04/21 07:09:22;;;;;;;5.07;3.78;;;;;;;30.21;18.41;97892.56;5050829;28;20443;-87
2021/04/21 07:12:00;;;;;;;6.53;3.80;;;;;;;29.96;18.97;97888.13;5049282;28;20089;-87
2021/04/21 07:14:30;;;;;;;5.55;4.07;;;;;;;29.92;19.02;97887.50;5052457;28;20142;-87
2021/04/21 07:16:58;;;;;;;6.10;3.63;;;;;;;30.19;20.01;97885.81;5051456;28;20036;-88
2021/04/21 07:19:26;;;;;;;3.97;3.17;;;;;;;30.87;18.73;97887.56;5047501;28;20382;-88
2021/04/21 07:21:53;;;;;;;7.65;3.63;;;;;;;31.29;18.41;97887.38;5047739;28;20029;-88
2021/04/21 07:24:31;;;;;;;6.00;4.22;;;;;;;31.44;17.81;97893.09;5045319;28;20552;-87
2021/04/21 07:26:59;;;;;;;4.68;4.03;;;;;;;31.78;18.07;97887.50;5039754;28;20028;-87
2021/04/21 07:29:26;;;;;;;5.85;3.75;;;;;;;32.00;17.63;97890.69;5044035;28;20060;-87
2021/04/21 07:31:54;;;;;;;6.13;4.60;;;;;;;32.09;17.43;97892.66;5033503;28;20071;-87
2021/04/21 07:34:32;;;;;;;5.28;3.78;;;;;;;32.03;17.78;97894.63;5034635;28;20089;-87
2021/04/21 07:36:59;;;;;;;5.05;4.05;;;;;;;31.86;17.25;97894.31;5037543;28;20037;-88
2021/04/21 07:39:37;;;;;;;5.57;3.63;;;;;;;32.11;17.92;97895.78;5039079;28;20116;-87
2021/04/21 07:42:14;;;;;;;4.90;3.42;;;;;;;32.57;18.08;97893.88;5048655;28;20072;-87
2021/04/21 07:44:52;;;;;;;5.25;3.78;;;;;;;32.44;17.80;97884.88;5058674;28;20112;-87
2021/04/21 07:47:24;;;;;;;4.25;3.53;;;;;;;32.62;17.38;97896.03;5050842;28;20037;-88
2021/04/21 07:49:58;;;;;;;3.90;2.60;;;;;;;32.52;17.76;97903.13;5047679;28;20029;-87
2021/04/21 07:52:28;;;;;;;4.32;3.90;;;;;;;32.68;17.12;97896.88;5050493;28;20033;-87
2021/04/21 07:55:09;;;;;;;4.53;3.50;;;;;;;32.71;16.65;97897.94;5044781;28;20075;-87
2021/04/21 07:57:36;;;;;;;5.85;3.95;;;;;;;32.43;17.11;97896.75;5038849;28;20044;-87
2021/04/21 08:00:05;;;;;;;7.90;4.45;;;;;;;31.52;17.53;97897.88;5041199;28;20483;-87
2021/04/21 08:02:35;;;;;;;3.92;3.05;;;;;;;31.52;17.82;97897.88;5048702;28;20041;-87
2021/04/21 08:05:06;;;;;;;4.13;3.08;;;;;;;32.01;17.76;97897.97;5062197;28;20036;-87
2021/04/21 08:07:39;;;;;;;6.05;3.45;;;;;;;32.18;17.38;97898.22;5046813;28;20051;-87
2021/04/21 08:10:27;;;;;;;3.60;3.28;;;;;;;32.38;17.37;97901.09;5051067;28;20079;-87
2021/04/21 08:12:58;;;;;;;5.97;4.70;;;;;;;31.26;17.32;97903.31;5053438;28;20029;-86
2021/04/21 08:15:43;;;;;;;7.13;5.05;;;;;;;30.50;17.54;97903.28;5035605;28;20025;-87
2021/04/21 08:18:14;;;;;;;5.22;3.92;;;;;;;29.22;20.37;97908.59;5056793;28;20048;-87
2021/04/21 08:20:45;;;;;;;7.20;5.45;;;;;;;28.65;20.28;97909.53;5052266;28;20513;-87
2021/04/21 08:23:16;;;;;;;6.78;5.50;;;;;;;28.95;19.69;97913.44;5053457;28;20040;-87
2021/04/21 08:25:42;;;;;;;5.95;3.88;;;;;;;30.09;19.39;97914.19;5053479;28;20033;-87
2021/04/21 08:28:08;;;;;;;5.97;4.65;;;;;;;31.00;18.66;97902.28;5054277;28;20389;-87
2021/04/21 08:30:35;;;;;;;6.65;5.05;;;;;;;30.71;18.08;97905.03;5049444;28;20087;-87
2021/04/21 08:33:02;;;;;;;6.35;3.95;;;;;;;31.48;18.93;97900.13;5051859;28;20108;-87
2021/04/21 08:35:28;;;;;;;7.53;5.50;;;;;;;31.68;18.32;97908.75;5051477;28;20025;-87
2021/04/21 08:37:54;;;;;;;5.68;4.53;;;;;;;31.19;17.87;97905.75;5054370;28;20087;-87
2021/04/21 08:40:24;;;;;;;7.55;5.28;;;;;;;31.09;18.23;97902.22;5043990;28;20033;-87
2021/04/21 08:43:01;;;;;;;4.57;3.75;;;;;;;31.94;18.03;97904.03;5051844;28;20447;-87
2021/04/21 08:45:28;;;;;;;5.47;4.25;;;;;;;32.06;17.66;97899.31;5049511;28;20120;-85
2021/04/21 08:47:56;;;;;;;4.63;3.53;;;;;;;32.11;16.59;97903.53;5041424;28;20033;-85
2021/04/21 08:50:24;;;;;;;5.45;4.00;;;;;;;31.66;17.42;97899.16;5044404;28;20036;-85
2021/04/21 08:52:57;;;;;;;6.43;5.07;;;;;;;29.22;18.38;97913.47;5051978;28;20058;-85
2021/04/21 08:55:26;;;;;;;3.70;3.35;;;;;;;30.34;18.24;97898.03;5041662;28;20029;-85
2021/04/21 08:57:53;;;;;;;6.68;3.83;;;;;;;29.58;19.76;97890.75;5054106;28;20513;-85
2021/04/21 09:00:20;;;;;;;3.53;3.22;;;;;;;29.84;18.84;97900.44;5053210;28;20057;-85
2021/04/21 09:02:50;;;;;;;4.55;3.65;;;;;;;30.56;18.31;97896.47;5051574;28;20037;-85
2021/04/21 09:05:18;;;;;;;4.32;3.45;;;;;;;30.90;17.52;97897.97;5054493;28;20040;-85
2021/04/21 09:07:45;;;;;;;2.78;2.58;;;;;;;31.68;17.61;97900.22;5053171;28;20494;-85
2021/04/21 09:10:16;;;;;;;5.40;3.50;;;;;;;31.41;16.62;97900.50;5050591;28;20567;-85
2021/04/21 09:12:42;;;;;;;3.70;2.55;;;;;;;32.19;16.81;97898.97;5050740;28;20064;-84
2021/04/21 09:15:11;;;;;;;3.38;3.08;;;;;;;31.47;16.47;97892.09;5057690;28;20033;-85
2021/04/21 09:17:51;;;;;;;4.13;3.40;;;;;;;31.78;16.73;97893.16;5049849;28;20149;-85
2021/04/21 09:20:21;;;;;;;2.83;2.45;;;;;;;31.73;17.01;97899.53;5049785;28;20083;-83
2021/04/21 09:23:14;;;;;;;2.95;2.45;;;;;;;32.03;15.87;97901.09;5050179;28;20044;-84
2021/04/21 09:25:43;;;;;;;3.60;2.63;;;;;;;32.32;16.14;97893.75;5053677;28;20104;-84
2021/04/21 09:28:10;;;;;;;3.45;3.15;;;;;;;31.41;16.81;97889.16;5059661;28;20025;-84
2021/04/21 09:30:39;;;;;;;2.22;1.85;;;;;;;31.65;18.09;97889.09;5046943;28;20037;-84
2021/04/21 09:33:07;;;;;;;2.53;2.30;;;;;;;32.59;16.88;97893.38;5046857;28;20034;-84
2021/04/21 09:35:43;;;;;;;3.15;2.05;;;;;;;32.95;16.02;97884.28;5047605;28;20410;-84
2021/04/21 09:38:11;;;;;;;3.28;2.97;;;;;;;32.40;15.78;97878.63;5041899;28;20121;-84
2021/04/21 09:40:58;;;;;;;3.65;3.33;;;;;;;31.06;17.29;97885.41;5044730;28;20429;-84
2021/04/21 09:43:34;;;;;;;3.13;2.53;;;;;;;32.09;17.61;97884.13;5062825;28;20445;-84
2021/04/21 09:46:20;;;;;;;2.28;2.03;;;;;;;32.52;14.69;97877.53;5047221;28;20493;-84
2021/04/21 09:48:47;;;;;;;3.22;2.45;;;;;;;32.61;15.89;97882.28;5046627;28;20044;-84
2021/04/21 09:51:14;;;;;;;2.60;2.40;;;;;;;32.37;15.38;97876.78;5041913;28;20465;-84
2021/04/21 09:53:51;;;;;;;3.50;2.20;;;;;;;33.07;16.22;97880.28;5054709;28;20025;-84
2021/04/21 09:56:20;;;;;;;5.13;2.08;;;;;;;33.49;16.07;97871.16;5050020;28;20029;-84
2021/04/21 09:58:48;;;;;;;2.00;1.80;;;;;;;34.05;15.22;97858.97;5053672;28;20493;-84
2021/04/21 10:01:38;;;;;;;2.75;2.50;;;;;;;32.78;14.19;97863.38;5048123;28;20041;-84
2021/04/21 10:04:14;;;;;;;3.72;2.60;;;;;;;31.96;16.29;97864.56;5049994;28;20059;-84
2021/04/21 10:06:49;;;;;;;2.90;2.05;;;;;;;32.73;15.28;97856.34;5040098;28;20491;-84
2021/04/21 10:09:29;;;;;;;2.08;1.83;;;;;;;32.52;15.53;97851.94;5048931;28;20023;-84
2021/04/21 10:12:16;;;;;;;2.55;1.90;;;;;;;32.77;14.74;97853.28;5052275;28;20040;-84
2021/04/21 10:14:44;;;;;;;3.95;3.55;;;;;;;31.46;15.92;97850.81;5054771;28;20068;-84
2021/04/21 10:17:11;;;;;;;2.20;1.80;;;;;;;32.44;15.79;97850.00;5052956;28;20045;-84
2021/04/21 10:19:37;;;;;;;5.65;2.25;;;;;;;32.45;16.01;97840.19;5048720;28;20041;-84
2021/04/21 10:22:03;;;;;;;3.72;1.90;;;;;;;31.80;16.82;97850.06;5052530;28;20086;-84
2021/04/21 10:24:30;;;;;;;5.32;2.88;;;;;;;31.97;16.64;97848.31;5052476;28;20037;-84
2021/04/21 10:26:56;;;;;;;2.42;2.20;;;;;;;31.25;15.68;97835.72;5053470;28;20033;-84
2021/04/21 10:29:24;;;;;;;3.55;2.00;;;;;;;31.76;17.66;97833.25;5051662;28;20099;-84
2021/04/21 10:31:54;;;;;;;4.00;2.90;;;;;;;30.99;16.91;97834.72;5054861;28;20447;-84
2021/04/21 10:34:22;;;;;;;2.37;2.17;;;;;;;31.61;16.14;97840.22;5053864;28;20036;-84
2021/04/21 10:36:52;;;;;;;1.75;1.65;;;;;;;32.14;16.23;97834.34;5051951;28;20041;-84
2021/04/21 10:39:33;;;;;;;2.83;2.63;;;;;;;32.40;15.18;97832.38;5040424;28;20079;-85
2021/04/21 10:42:20;;;;;;;2.63;2.42;;;;;;;30.19;15.89;97827.13;5039425;28;20108;-84
2021/04/21 10:44:48;;;;;;;3.42;2.67;;;;;;;29.43;17.50;97831.22;5041975;28;20032;-83
2021/04/21 10:47:24;;;;;;;3.90;2.58;;;;;;;29.26;18.37;97835.69;5036277;28;20034;-84
2021/04/21 10:49:52;;;;;;;2.58;2.38;;;;;;;29.15;19.18;97826.88;5034770;28;20474;-84
2021/04/21 10:52:29;;;;;;;2.65;2.22;;;;;;;30.63;17.55;97828.09;5046365;28;20120;-83
2021/04/21 10:55:08;;;;;;;3.00;2.70;;;;;;;29.51;17.94;97825.22;5042414;28;20083;-83
2021/04/21 10:57:35;;;;;;;4.15;2.83;;;;;;;30.85;17.34;97822.06;5049997;28;20045;-83
2021/04/21 11:00:24;;;;;;;2.63;2.42;;;;;;;32.14;15.63;97823.00;5052866;28;20580;-83
2021/04/21 11:03:12;;;;;;;2.22;1.73;;;;;;;32.29;15.30;97804.59;5050994;28;20025;-83
2021/04/21 11:05:41;;;;;;;2.35;2.15;;;;;;;31.67;16.08;97804.97;5050739;28;20029;-83
2021/04/21 11:08:21;;;;;;;2.88;2.22;;;;;;;31.81;16.40;97804.16;5040432;28;20042;-83
2021/04/21 11:10:53;;;;;;;2.00;1.80;;;;;;;32.50;16.19;97802.56;5052057;28;20379;-83
2021/04/21 11:13:35;;;;;;;3.67;2.70;;;;;;;32.27;15.11;97801.47;5052461;28;20033;-83
2021/04/21 11:16:02;;;;;;;2.20;2.00;;;;;;;32.56;15.36;97801.34;5052811;28;20029;-83
2021/04/21 11:18:30;;;;;;;4.15;3.10;;;;;;;31.27;15.12;97807.66;5048460;28;20487;-83
2021/04/21 11:21:02;;;;;;;2.45;2.25;;;;;;;30.46;17.80;97809.16;5050105;28;20498;-83
2021/04/21 11:23:55;;;;;;;3.50;2.55;;;;;;;30.20;16.94;97796.75;5053666;28;20037;-83
2021/04/21 11:26:24;;;;;;;6.15;3.78;;;;;;;29.92;17.79;97798.97;5051476;28;20179;-83
2021/04/21 11:29:00;;;;;;;3.72;2.88;;;;;;;30.40;18.32;97796.94;5044861;28;20151;-83
2021/04/21 11:31:49;;;;;;;3.65;2.97;;;;;;;30.01;17.83;97788.38;5041314;28;20029;-83
2021/04/21 11:34:28;;;;;;;4.10;3.70;;;;;;;29.78;17.88;97786.31;5038939;28;20120;-83
2021/04/21 11:37:06;;;;;;;2.92;2.55;;;;;;;30.41;17.43;97787.94;5040552;28;20048;-82
2021/04/21 11:42:20;;;;;;;4.15;3.15;;;;;;;30.50;16.13;97775.78;5049109;28;20048;-83
2021/04/21 11:45:01;;;;;;;4.03;3.00;;;;;;;29.80;17.78;97780.19;5044590;28;20030;-82
2021/04/21 11:47:37;;;;;;;3.97;3.58;;;;;;;29.63;17.98;97773.31;5040203;28;20044;-83
2021/04/21 11:50:09;;;;;;;2.40;2.20;;;;;;;30.76;17.73;97768.28;5040326;28;20029;-83
2021/04/21 11:52:41;;;;;;;4.15;3.15;;;;;;;28.97;18.81;97776.03;5041796;28;21233;-83
2021/04/21 11:55:08;;;;;;;4.57;2.95;;;;;;;30.35;17.04;97775.72;5039444;28;20025;-84
2021/04/21 11:57:38;;;;;;;2.88;2.33;;;;;;;30.13;15.94;97758.22;5041710;28;20517;-83
2021/04/21 12:00:13;;;;;;;2.58;2.33;;;;;;;29.86;17.34;97761.25;5040961;28;20030;-83
2021/04/21 12:02:40;;;;;;;1.90;1.60;;;;;;;31.03;15.45;97770.88;5042338;28;20045;-83
2021/04/21 12:05:06;;;;;;;3.00;2.33;;;;;;;29.70;17.42;97755.97;5051353;28;20025;-83
2021/04/21 12:07:32;;;;;;;2.42;2.10;;;;;;;30.17;17.12;97764.53;5050136;28;20110;-82
2021/04/21 12:09:59;;;;;;;3.00;2.40;;;;;;;29.74;17.99;97765.06;5040024;28;20027;-83